createdAt,value
2017-08-15T00:00:22.356Z,0
2017-08-15T00:01:22.435Z,0
2017-08-15T00:02:21.809Z,0
2017-08-15T00:03:22.437Z,0
2017-08-15T00:04:22.173Z,0
2017-08-15T00:05:22.517Z,0
2017-08-15T00:06:22.256Z,0
2017-08-15T00:07:22.255Z,0
2017-08-15T00:08:21.998Z,0
2017-08-15T00:09:22.976Z,0
2017-08-15T00:10:22.421Z,0
2017-08-15T00:11:23.102Z,0
2017-08-15T00:12:22.831Z,0
2017-08-15T00:13:23.485Z,0
2017-08-15T00:14:23.218Z,0
2017-08-15T00:15:23.536Z,0
2017-08-15T00:16:23.561Z,0
2017-08-15T00:17:23.614Z,0
2017-08-15T00:18:23.340Z,0
2017-08-15T00:19:23.366Z,0
2017-08-15T00:20:24.004Z,0
2017-08-15T00:21:23.729Z,0
2017-08-15T00:22:23.446Z,0
2017-08-15T00:23:24.414Z,0
2017-08-15T00:24:24.452Z,0
2017-08-15T00:25:24.491Z,0
2017-08-15T00:26:24.517Z,0
2017-08-15T00:27:24.254Z,0
2017-08-15T00:28:24.584Z,0
2017-08-15T00:29:24.318Z,0
2017-08-15T00:30:24.670Z,0
2017-08-15T00:31:24.373Z,0
2017-08-15T00:32:25.014Z,0
2017-08-15T00:33:24.410Z,0
2017-08-15T00:34:25.374Z,0
2017-08-15T00:35:24.820Z,0
2017-08-15T00:36:25.817Z,0
2017-08-15T00:37:25.533Z,0
2017-08-15T00:38:25.867Z,0
2017-08-15T00:39:25.904Z,0
2017-08-15T00:40:25.940Z,0
2017-08-15T00:41:25.978Z,0
2017-08-15T00:42:25.997Z,0
2017-08-15T00:43:26.032Z,0
2017-08-15T00:44:25.737Z,0
2017-08-15T00:45:26.389Z,0
2017-08-15T00:46:26.102Z,0
2017-08-15T00:47:26.433Z,0
2017-08-15T00:48:26.186Z,0
2017-08-15T00:49:26.505Z,0
2017-08-15T00:50:26.546Z,0
2017-08-15T00:51:25.976Z,0
2017-08-15T00:52:26.643Z,0
2017-08-15T00:53:26.972Z,0
2017-08-15T00:54:26.995Z,0
2017-08-15T00:55:27.042Z,0
2017-08-15T00:56:27.092Z,0
2017-08-15T00:57:27.142Z,0
2017-08-15T00:58:26.855Z,0
2017-08-15T00:59:26.885Z,0
2017-08-15T01:00:26.923Z,0
2017-08-15T01:01:26.984Z,0
2017-08-15T01:02:27.013Z,0
2017-08-15T01:03:27.018Z,0
2017-08-15T01:04:27.355Z,0
2017-08-15T01:05:27.388Z,0
2017-08-15T01:06:27.417Z,0
2017-08-15T01:07:27.446Z,0
2017-08-15T01:08:27.494Z,0
2017-08-15T01:09:27.510Z,0
2017-08-15T01:10:26.943Z,0
2017-08-15T01:11:27.611Z,0
2017-08-15T01:12:28.245Z,0
2017-08-15T01:13:27.981Z,0
2017-08-15T01:14:27.689Z,0
2017-08-15T01:15:28.666Z,0
2017-08-15T01:16:28.693Z,0
2017-08-15T01:17:28.133Z,0
2017-08-15T01:18:28.815Z,0
2017-08-15T01:19:28.539Z,0
2017-08-15T01:20:28.876Z,0
2017-08-15T01:21:29.245Z,0
2017-08-15T01:22:29.280Z,0
2017-08-15T01:23:29.010Z,0
2017-08-15T01:24:29.346Z,0
2017-08-15T01:25:29.061Z,0
2017-08-15T01:26:29.431Z,0
2017-08-15T01:27:29.446Z,0
2017-08-15T01:28:28.850Z,0
2017-08-15T01:29:28.919Z,0
2017-08-15T01:30:29.564Z,0
2017-08-15T01:31:29.597Z,0
2017-08-15T01:32:29.623Z,0
2017-08-15T01:33:29.663Z,0
2017-08-15T01:34:29.693Z,0
2017-08-15T01:35:29.426Z,0
2017-08-15T01:36:29.456Z,0
2017-08-15T01:37:29.804Z,0
2017-08-15T01:38:29.515Z,0
2017-08-15T01:39:29.248Z,0
2017-08-15T01:40:29.929Z,0
2017-08-15T01:41:30.258Z,0
2017-08-15T01:42:30.296Z,0
2017-08-15T01:43:30.028Z,0
2017-08-15T01:44:30.066Z,0
2017-08-15T01:45:29.770Z,0
2017-08-15T01:46:30.436Z,0
2017-08-15T01:47:30.460Z,0
2017-08-15T01:48:30.795Z,0
2017-08-15T01:49:30.531Z,0
2017-08-15T01:50:30.229Z,0
2017-08-15T01:51:30.886Z,0
2017-08-15T01:52:30.650Z,0
2017-08-15T01:53:31.038Z,0
2017-08-15T01:54:31.749Z,0
2017-08-15T01:55:31.715Z,0
2017-08-15T01:56:31.795Z,0
2017-08-15T01:57:31.796Z,0
2017-08-15T01:58:32.152Z,0
2017-08-15T01:59:31.886Z,0
2017-08-15T02:00:31.914Z,0
2017-08-15T02:01:31.709Z,0
2017-08-15T02:02:32.364Z,0
2017-08-15T02:03:32.724Z,0
2017-08-15T02:04:31.823Z,0
2017-08-15T02:05:32.182Z,0
2017-08-15T02:06:33.166Z,0
2017-08-15T02:07:32.588Z,0
2017-08-15T02:08:33.560Z,0
2017-08-15T02:09:33.277Z,0
2017-08-15T02:10:33.323Z,0
2017-08-15T02:11:33.671Z,0
2017-08-15T02:12:33.720Z,0
2017-08-15T02:13:33.428Z,0
2017-08-15T02:14:33.762Z,0
2017-08-15T02:15:33.166Z,0
2017-08-15T02:16:33.864Z,0
2017-08-15T02:17:33.882Z,0
2017-08-15T02:18:33.599Z,0
2017-08-15T02:19:33.568Z,0
2017-08-15T02:20:33.364Z,0
2017-08-15T02:21:34.326Z,0
2017-08-15T02:22:34.383Z,0
2017-08-15T02:23:33.469Z,0
2017-08-15T02:24:34.128Z,0
2017-08-15T02:25:34.461Z,0
2017-08-15T02:26:34.227Z,0
2017-08-15T02:27:34.257Z,0
2017-08-15T02:28:34.588Z,0
2017-08-15T02:29:34.322Z,0
2017-08-15T02:30:34.656Z,0
2017-08-15T02:31:34.428Z,0
2017-08-15T02:32:35.081Z,0
2017-08-15T02:33:34.504Z,0
2017-08-15T02:34:34.847Z,0
2017-08-15T02:35:35.552Z,0
2017-08-15T02:36:34.909Z,0
2017-08-15T02:37:35.557Z,0
2017-08-15T02:38:35.324Z,0
2017-08-15T02:39:35.983Z,0
2017-08-15T02:40:36.049Z,0
2017-08-15T02:41:36.380Z,0
2017-08-15T02:42:35.810Z,0
2017-08-15T02:43:36.199Z,0
2017-08-15T02:44:35.885Z,0
2017-08-15T02:45:36.594Z,0
2017-08-15T02:46:36.888Z,0
2017-08-15T02:47:36.946Z,0
2017-08-15T02:48:36.950Z,0
2017-08-15T02:49:36.992Z,0
2017-08-15T02:50:36.720Z,0
2017-08-15T02:51:36.767Z,0
2017-08-15T02:52:36.789Z,0
2017-08-15T02:53:37.126Z,0
2017-08-15T02:54:36.851Z,0
2017-08-15T02:55:36.859Z,0
2017-08-15T02:56:37.235Z,0
2017-08-15T02:57:36.654Z,0
2017-08-15T02:58:37.640Z,0
2017-08-15T02:59:37.381Z,0
2017-08-15T03:00:37.427Z,0
2017-08-15T03:01:37.880Z,0
2017-08-15T03:02:37.748Z,0
2017-08-15T03:03:37.187Z,0
2017-08-15T03:04:37.239Z,0
2017-08-15T03:05:38.219Z,0
2017-08-15T03:06:37.642Z,0
2017-08-15T03:07:38.625Z,0
2017-08-15T03:08:38.656Z,0
2017-08-15T03:09:38.699Z,0
2017-08-15T03:10:38.406Z,0
2017-08-15T03:11:38.451Z,0
2017-08-15T03:12:38.156Z,0
2017-08-15T03:13:39.136Z,0
2017-08-15T03:14:38.846Z,0
2017-08-15T03:15:38.891Z,0
2017-08-15T03:16:39.258Z,0
2017-08-15T03:17:39.604Z,0
2017-08-15T03:18:39.337Z,0
2017-08-15T03:19:39.398Z,0
2017-08-15T03:20:39.770Z,0
2017-08-15T03:21:40.097Z,0
2017-08-15T03:22:40.136Z,0
2017-08-15T03:23:39.563Z,0
2017-08-15T03:24:40.217Z,0
2017-08-15T03:25:40.275Z,0
2017-08-15T03:26:40.597Z,0
2017-08-15T03:27:40.646Z,0
2017-08-15T03:28:40.377Z,0
2017-08-15T03:29:40.393Z,0
2017-08-15T03:30:40.425Z,0
2017-08-15T03:31:40.771Z,0
2017-08-15T03:32:40.805Z,0
2017-08-15T03:33:40.849Z,0
2017-08-15T03:34:40.865Z,0
2017-08-15T03:35:40.899Z,0
2017-08-15T03:36:40.937Z,0
2017-08-15T03:37:40.383Z,0
2017-08-15T03:38:41.043Z,0
2017-08-15T03:39:40.771Z,0
2017-08-15T03:40:40.838Z,0
2017-08-15T03:41:41.825Z,0
2017-08-15T03:42:41.854Z,0
2017-08-15T03:43:41.582Z,5
2017-08-15T03:44:41.922Z,5
2017-08-15T03:45:41.340Z,5
2017-08-15T03:46:41.998Z,5
2017-08-15T03:47:42.360Z,5
2017-08-15T03:48:42.377Z,5
2017-08-15T03:49:42.117Z,5
2017-08-15T03:50:42.469Z,5
2017-08-15T03:51:42.171Z,10
2017-08-15T03:52:42.529Z,10
2017-08-15T03:53:42.557Z,10
2017-08-15T03:54:42.896Z,10
2017-08-15T03:55:42.907Z,10
2017-08-15T03:56:43.300Z,15
2017-08-15T03:57:43.294Z,15
2017-08-15T03:58:43.334Z,15
2017-08-15T03:59:43.066Z,15
2017-08-15T04:00:43.122Z,15
2017-08-15T04:01:43.554Z,20
2017-08-15T04:02:42.911Z,20
2017-08-15T04:03:43.334Z,20
2017-08-15T04:04:44.407Z,20
2017-08-15T04:05:44.101Z,25
2017-08-15T04:06:44.146Z,25
2017-08-15T04:07:44.477Z,25
2017-08-15T04:08:43.903Z,25
2017-08-15T04:09:44.947Z,30
2017-08-15T04:10:44.986Z,30
2017-08-15T04:11:45.019Z,30
2017-08-15T04:12:45.053Z,30
2017-08-15T04:13:45.098Z,35
2017-08-15T04:14:44.809Z,35
2017-08-15T04:15:44.830Z,35
2017-08-15T04:16:45.183Z,40
2017-08-15T04:17:45.227Z,40
2017-08-15T04:18:45.243Z,40
2017-08-15T04:19:44.969Z,45
2017-08-15T04:20:44.990Z,45
2017-08-15T04:21:45.049Z,45
2017-08-15T04:22:45.064Z,50
2017-08-15T04:23:45.419Z,50
2017-08-15T04:24:45.135Z,50
2017-08-15T04:25:45.152Z,55
2017-08-15T04:26:45.204Z,55
2017-08-15T04:27:45.541Z,60
2017-08-15T04:28:44.971Z,60
2017-08-15T04:29:45.739Z,60
2017-08-15T04:30:45.404Z,65
2017-08-15T04:31:46.148Z,65
2017-08-15T04:32:46.180Z,65
2017-08-15T04:33:46.211Z,70
2017-08-15T04:34:46.559Z,70
2017-08-15T04:35:46.611Z,75
2017-08-15T04:36:46.617Z,75
2017-08-15T04:37:46.034Z,75
2017-08-15T04:38:46.753Z,80
2017-08-15T04:39:46.466Z,80
2017-08-15T04:40:46.202Z,80
2017-08-15T04:41:46.643Z,85
2017-08-15T04:42:47.072Z,85
2017-08-15T04:43:47.432Z,90
2017-08-15T04:44:47.443Z,90
2017-08-15T04:45:47.508Z,90
2017-08-15T04:46:47.522Z,95
2017-08-15T04:47:47.545Z,95
2017-08-15T04:48:47.585Z,100
2017-08-15T04:49:47.610Z,100
2017-08-15T04:50:47.323Z,100
2017-08-15T04:51:47.397Z,105
2017-08-15T04:52:47.401Z,105
2017-08-15T04:53:47.741Z,110
2017-08-15T04:54:47.456Z,110
2017-08-15T04:55:47.879Z,115
2017-08-15T04:56:47.910Z,115
2017-08-15T04:57:48.246Z,115
2017-08-15T04:58:48.279Z,120
2017-08-15T04:59:48.315Z,120
2017-08-15T05:00:47.697Z,125
2017-08-15T05:01:48.608Z,125
2017-08-15T05:02:49.343Z,125
2017-08-15T05:03:49.390Z,125
2017-08-15T05:04:49.120Z,130
2017-08-15T05:05:49.449Z,130
2017-08-15T05:06:49.491Z,135
2017-08-15T05:07:49.510Z,135
2017-08-15T05:08:48.903Z,140
2017-08-15T05:09:49.003Z,140
2017-08-15T05:10:49.747Z,140
2017-08-15T05:11:50.164Z,140
2017-08-15T05:12:50.495Z,145
2017-08-15T05:13:50.540Z,145
2017-08-15T05:14:50.560Z,150
2017-08-15T05:15:50.290Z,160
2017-08-15T05:16:51.030Z,155
2017-08-15T05:17:51.041Z,155
2017-08-15T05:18:50.737Z,160
2017-08-15T05:19:51.159Z,165
2017-08-15T05:20:51.489Z,170
2017-08-15T05:21:51.510Z,170
2017-08-15T05:22:51.553Z,170
2017-08-15T05:23:51.588Z,175
2017-08-15T05:24:51.626Z,180
2017-08-15T05:25:51.650Z,180
2017-08-15T05:26:51.679Z,190
2017-08-15T05:27:51.716Z,190
2017-08-15T05:28:51.764Z,195
2017-08-15T05:29:51.816Z,205
2017-08-15T05:30:51.534Z,215
2017-08-15T05:31:51.868Z,220
2017-08-15T05:32:51.899Z,235
2017-08-15T05:33:51.922Z,310
2017-08-15T05:34:51.967Z,395
2017-08-15T05:35:51.689Z,335
2017-08-15T05:36:52.043Z,390
2017-08-15T05:37:51.751Z,635
2017-08-15T05:38:52.092Z,840
2017-08-15T05:39:52.135Z,685
2017-08-15T05:40:52.171Z,565
2017-08-15T05:41:52.195Z,655
2017-08-15T05:42:51.915Z,750
2017-08-15T05:43:51.959Z,590
2017-08-15T05:44:51.983Z,385
2017-08-15T05:45:52.323Z,370
2017-08-15T05:46:52.090Z,380
2017-08-15T05:47:52.804Z,365
2017-08-15T05:48:52.220Z,295
2017-08-15T05:49:53.282Z,290
2017-08-15T05:50:52.693Z,285
2017-08-15T05:51:53.412Z,275
2017-08-15T05:52:52.811Z,385
2017-08-15T05:53:53.554Z,480
2017-08-15T05:54:53.270Z,390
2017-08-15T05:55:54.321Z,355
2017-08-15T05:56:54.356Z,420
2017-08-15T05:57:53.137Z,280
2017-08-15T05:58:54.096Z,275
2017-08-15T05:59:54.501Z,325
2017-08-15T06:00:54.542Z,345
2017-08-15T06:01:54.570Z,285
2017-08-15T06:02:54.629Z,280
2017-08-15T06:03:54.963Z,375
2017-08-15T06:04:55.018Z,465
2017-08-15T06:05:55.040Z,335
2017-08-15T06:06:55.073Z,330
2017-08-15T06:07:54.797Z,360
2017-08-15T06:08:54.529Z,405
2017-08-15T06:09:54.967Z,500
2017-08-15T06:10:55.694Z,430
2017-08-15T06:11:55.402Z,515
2017-08-15T06:12:55.439Z,935
2017-08-15T06:13:55.258Z,1085
2017-08-15T06:14:56.314Z,1035
2017-08-15T06:15:56.301Z,820
2017-08-15T06:16:55.763Z,1280
2017-08-15T06:17:56.197Z,1285
2017-08-15T06:18:55.985Z,1310
2017-08-15T06:19:57.040Z,1200
2017-08-15T06:20:57.079Z,1370
2017-08-15T06:21:57.124Z,1415
2017-08-15T06:22:57.146Z,1355
2017-08-15T06:23:56.885Z,1425
2017-08-15T06:24:56.921Z,1600
2017-08-15T06:25:57.258Z,1480
2017-08-15T06:26:57.308Z,1495
2017-08-15T06:27:57.024Z,1385
2017-08-15T06:28:57.388Z,1210
2017-08-15T06:29:56.797Z,1695
2017-08-15T06:30:57.546Z,1660
2017-08-15T06:31:57.900Z,1740
2017-08-15T06:32:57.606Z,1785
2017-08-15T06:33:58.030Z,1810
2017-08-15T06:34:58.060Z,1800
2017-08-15T06:35:58.411Z,1795
2017-08-15T06:36:58.126Z,1795
2017-08-15T06:37:58.145Z,1840
2017-08-15T06:38:58.523Z,1905
2017-08-15T06:39:58.571Z,1925
2017-08-15T06:40:58.611Z,1985
2017-08-15T06:41:58.338Z,2030
2017-08-15T06:42:58.694Z,2035
2017-08-15T06:43:58.393Z,2055
2017-08-15T06:44:58.463Z,2080
2017-08-15T06:45:58.805Z,2025
2017-08-15T06:46:58.540Z,1510
2017-08-15T06:47:58.553Z,990
2017-08-15T06:48:58.957Z,625
2017-08-15T06:49:58.985Z,715
2017-08-15T06:50:59.047Z,665
2017-08-15T06:51:59.785Z,630
2017-08-15T06:52:59.191Z,570
2017-08-15T06:53:59.974Z,545
2017-08-15T06:55:00.281Z,545
2017-08-15T06:56:00.331Z,550
2017-08-15T06:57:00.052Z,550
2017-08-15T06:58:00.408Z,545
2017-08-15T06:59:00.137Z,540
2017-08-15T07:00:00.489Z,570
2017-08-15T07:00:59.894Z,575
2017-08-15T07:02:00.637Z,545
2017-08-15T07:03:01.004Z,565
2017-08-15T07:04:01.042Z,585
2017-08-15T07:05:01.071Z,740
2017-08-15T07:06:01.129Z,635
2017-08-15T07:07:00.877Z,720
2017-08-15T07:08:00.881Z,795
2017-08-15T07:09:00.926Z,735
2017-08-15T07:10:01.658Z,780
2017-08-15T07:11:01.698Z,815
2017-08-15T07:12:01.095Z,745
2017-08-15T07:13:01.851Z,715
2017-08-15T07:14:02.579Z,715
2017-08-15T07:15:02.767Z,645
2017-08-15T07:16:02.745Z,705
2017-08-15T07:17:02.704Z,1880
2017-08-15T07:18:02.106Z,2160
2017-08-15T07:19:02.547Z,2105
2017-08-15T07:20:03.666Z,1710
2017-08-15T07:21:03.355Z,2030
2017-08-15T07:22:03.364Z,2260
2017-08-15T07:23:03.714Z,2215
2017-08-15T07:24:04.143Z,2220
2017-08-15T07:25:04.284Z,2105
2017-08-15T07:26:03.879Z,2265
2017-08-15T07:27:03.723Z,2185
2017-08-15T07:28:04.027Z,1205
2017-08-15T07:29:04.776Z,1215
2017-08-15T07:30:04.650Z,1000
2017-08-15T07:31:04.251Z,1220
2017-08-15T07:32:05.024Z,1490
2017-08-15T07:33:04.418Z,870
2017-08-15T07:34:05.188Z,1655
2017-08-15T07:35:05.678Z,915
2017-08-15T07:36:05.319Z,1215
2017-08-15T07:37:05.738Z,935
2017-08-15T07:38:05.776Z,750
2017-08-15T07:39:05.849Z,750
2017-08-15T07:40:05.855Z,1300
2017-08-15T07:41:05.923Z,950
2017-08-15T07:42:06.041Z,730
2017-08-15T07:43:06.468Z,2455
2017-08-15T07:44:06.935Z,720
2017-08-15T07:45:06.694Z,760
2017-08-15T07:46:07.543Z,1370
2017-08-15T07:47:07.470Z,905
2017-08-15T07:48:07.840Z,875
2017-08-15T07:49:07.887Z,1605
2017-08-15T07:50:07.297Z,2170
2017-08-15T07:51:08.084Z,970
2017-08-15T07:52:08.408Z,1415
2017-08-15T07:53:08.450Z,1615
2017-08-15T07:54:08.225Z,1235
2017-08-15T07:55:08.601Z,1205
2017-08-15T07:56:08.346Z,1175
2017-08-15T07:57:08.617Z,1400
2017-08-15T07:58:08.653Z,1275
2017-08-15T07:59:08.456Z,1990
2017-08-15T08:00:08.732Z,2830
2017-08-15T08:01:08.447Z,2665
2017-08-15T08:02:08.929Z,2615
2017-08-15T08:03:08.532Z,2360
2017-08-15T08:04:08.877Z,1785
2017-08-15T08:05:08.956Z,1735
2017-08-15T08:06:08.965Z,1285
2017-08-15T08:07:09.027Z,1165
2017-08-15T08:08:09.046Z,1120
2017-08-15T08:09:08.787Z,1065
2017-08-15T08:10:08.948Z,1975
2017-08-15T08:11:08.862Z,2435
2017-08-15T08:12:09.278Z,1350
2017-08-15T08:13:09.307Z,1215
2017-08-15T08:14:09.388Z,1405
2017-08-15T08:15:09.771Z,2000
2017-08-15T08:16:09.147Z,1020
2017-08-15T08:17:09.890Z,2410
2017-08-15T08:18:09.601Z,2460
2017-08-15T08:19:09.642Z,2535
2017-08-15T08:20:09.373Z,2460
2017-08-15T08:21:10.523Z,2475
2017-08-15T08:22:10.224Z,2495
2017-08-15T08:23:10.961Z,2305
2017-08-15T08:24:10.701Z,2335
2017-08-15T08:25:11.212Z,2540
2017-08-15T08:26:10.851Z,2525
2017-08-15T08:27:11.932Z,2440
2017-08-15T08:28:11.343Z,2455
2017-08-15T08:29:12.092Z,2535
2017-08-15T08:30:11.836Z,2400
2017-08-15T08:31:12.264Z,2315
2017-08-15T08:32:13.014Z,2320
2017-08-15T08:33:13.096Z,2415
2017-08-15T08:34:12.471Z,2550
2017-08-15T08:35:13.162Z,2375
2017-08-15T08:36:12.563Z,2375
2017-08-15T08:37:12.601Z,2510
2017-08-15T08:38:12.973Z,2530
2017-08-15T08:39:13.741Z,2510
2017-08-15T08:40:13.838Z,2470
2017-08-15T08:41:14.128Z,2450
2017-08-15T08:42:14.161Z,2445
2017-08-15T08:43:14.212Z,2510
2017-08-15T08:44:13.653Z,2595
2017-08-15T08:45:14.524Z,2585
2017-08-15T08:46:14.174Z,2580
2017-08-15T08:47:14.532Z,2620
2017-08-15T08:48:14.276Z,2665
2017-08-15T08:49:14.290Z,2615
2017-08-15T08:50:14.426Z,2615
2017-08-15T08:51:14.739Z,2585
2017-08-15T08:52:14.129Z,2585
2017-08-15T08:53:14.572Z,2610
2017-08-15T08:54:15.018Z,2660
2017-08-15T08:55:15.874Z,2705
2017-08-15T08:56:15.922Z,2775
2017-08-15T08:57:15.979Z,2830
2017-08-15T08:58:15.998Z,2760
2017-08-15T08:59:15.732Z,2715
2017-08-15T09:00:16.498Z,2720
2017-08-15T09:01:16.549Z,2725
2017-08-15T09:02:15.966Z,2720
2017-08-15T09:03:16.733Z,2675
2017-08-15T09:04:16.448Z,2790
2017-08-15T09:05:17.170Z,2625
2017-08-15T09:06:16.902Z,2610
2017-08-15T09:07:17.277Z,2660
2017-08-15T09:08:17.002Z,2610
2017-08-15T09:09:17.098Z,2635
2017-08-15T09:10:17.776Z,2660
2017-08-15T09:11:17.537Z,2630
2017-08-15T09:12:17.243Z,2530
2017-08-15T09:13:18.349Z,2435
2017-08-15T09:14:18.355Z,2490
2017-08-15T09:15:17.777Z,2470
2017-08-15T09:16:18.547Z,2060
2017-08-15T09:17:18.589Z,1725
2017-08-15T09:18:18.317Z,1310
2017-08-15T09:19:18.061Z,1960
2017-08-15T09:20:18.838Z,2650
2017-08-15T09:21:19.209Z,2780
2017-08-15T09:22:18.898Z,2770
2017-08-15T09:23:19.261Z,2610
2017-08-15T09:24:19.297Z,2800
2017-08-15T09:25:18.745Z,2990
2017-08-15T09:26:19.819Z,2890
2017-08-15T09:27:19.852Z,2795
2017-08-15T09:28:19.913Z,1460
2017-08-15T09:29:19.340Z,2340
2017-08-15T09:30:20.426Z,1150
2017-08-15T09:31:20.446Z,910
2017-08-15T09:32:20.493Z,1960
2017-08-15T09:33:20.541Z,1035
2017-08-15T09:34:20.270Z,1175
2017-08-15T09:35:20.629Z,2250
2017-08-15T09:36:20.045Z,2500
2017-08-15T09:37:20.801Z,2595
2017-08-15T09:38:20.919Z,2090
2017-08-15T09:39:21.279Z,1180
2017-08-15T09:40:21.104Z,2520
2017-08-15T09:41:21.538Z,2770
2017-08-15T09:42:20.942Z,2555
2017-08-15T09:43:22.025Z,2345
2017-08-15T09:44:21.758Z,2375
2017-08-15T09:45:22.493Z,2350
2017-08-15T09:46:22.543Z,2400
2017-08-15T09:47:22.272Z,2440
2017-08-15T09:48:22.643Z,2625
2017-08-15T09:49:22.344Z,2595
2017-08-15T09:50:22.101Z,2580
2017-08-15T09:51:22.870Z,2730
2017-08-15T09:52:22.606Z,2160
2017-08-15T09:53:23.379Z,1870
2017-08-15T09:54:24.107Z,1570
2017-08-15T09:55:24.152Z,1610
2017-08-15T09:56:23.897Z,1385
2017-08-15T09:57:24.244Z,1415
2017-08-15T09:58:23.658Z,1215
2017-08-15T09:59:24.714Z,1115
2017-08-15T10:00:24.778Z,1265
2017-08-15T10:01:24.537Z,1220
2017-08-15T10:02:24.870Z,1280
2017-08-15T10:03:24.898Z,1210
2017-08-15T10:04:24.956Z,1170
2017-08-15T10:05:25.005Z,1125
2017-08-15T10:06:25.037Z,1060
2017-08-15T10:07:25.087Z,925
2017-08-15T10:08:25.137Z,980
2017-08-15T10:09:24.890Z,990
2017-08-15T10:10:24.921Z,935
2017-08-15T10:11:24.948Z,935
2017-08-15T10:12:24.998Z,910
2017-08-15T10:13:25.057Z,990
2017-08-15T10:14:25.492Z,1085
2017-08-15T10:15:25.824Z,1090
2017-08-15T10:16:25.882Z,1050
2017-08-15T10:17:25.602Z,995
2017-08-15T10:18:25.661Z,935
2017-08-15T10:19:25.709Z,900
2017-08-15T10:20:25.732Z,945
2017-08-15T10:21:25.810Z,965
2017-08-15T10:22:25.839Z,935
2017-08-15T10:23:26.198Z,895
2017-08-15T10:24:25.944Z,830
2017-08-15T10:25:26.096Z,810
2017-08-15T10:26:26.839Z,795
2017-08-15T10:27:26.842Z,880
2017-08-15T10:28:27.448Z,870
2017-08-15T10:29:27.527Z,930
2017-08-15T10:30:26.948Z,945
2017-08-15T10:31:27.320Z,965
2017-08-15T10:32:26.859Z,940
2017-08-15T10:33:27.080Z,1060
2017-08-15T10:34:26.897Z,935
2017-08-15T10:35:27.241Z,1070
2017-08-15T10:36:27.463Z,1155
2017-08-15T10:37:27.581Z,1165
2017-08-15T10:38:27.301Z,730
2017-08-15T10:39:27.394Z,1140
2017-08-15T10:40:26.801Z,1135
2017-08-15T10:41:28.187Z,1100
2017-08-15T10:42:28.283Z,1060
2017-08-15T10:43:28.366Z,1045
2017-08-15T10:44:28.180Z,1005
2017-08-15T10:45:28.436Z,950
2017-08-15T10:46:28.426Z,910
2017-08-15T10:47:28.460Z,915
2017-08-15T10:48:28.164Z,875
2017-08-15T10:49:27.994Z,875
2017-08-15T10:50:28.972Z,880
2017-08-15T10:51:28.710Z,835
2017-08-15T10:52:28.433Z,850
2017-08-15T10:53:28.674Z,860
2017-08-15T10:54:28.796Z,820
2017-08-15T10:55:28.784Z,805
2017-08-15T10:56:28.779Z,830
2017-08-15T10:57:28.653Z,860
2017-08-15T10:58:28.793Z,870
2017-08-15T10:59:28.866Z,855
2017-08-15T11:00:28.871Z,835
2017-08-15T11:01:29.556Z,785
2017-08-15T11:02:29.166Z,740
2017-08-15T11:03:29.301Z,775
2017-08-15T11:04:29.562Z,800
2017-08-15T11:05:29.011Z,810
2017-08-15T11:06:28.772Z,810
2017-08-15T11:07:29.895Z,710
2017-08-15T11:08:29.938Z,765
2017-08-15T11:09:29.745Z,670
2017-08-15T11:10:29.531Z,490
2017-08-15T11:11:29.339Z,430
2017-08-15T11:12:29.940Z,415
2017-08-15T11:13:29.844Z,405
2017-08-15T11:14:29.917Z,400
2017-08-15T11:15:29.645Z,405
2017-08-15T11:16:29.442Z,410
2017-08-15T11:17:29.415Z,405
2017-08-15T11:18:29.499Z,395
2017-08-15T11:19:28.897Z,380
2017-08-15T11:20:29.964Z,365
2017-08-15T11:21:29.749Z,355
2017-08-15T11:22:30.049Z,345
2017-08-15T11:23:30.111Z,345
2017-08-15T11:24:31.024Z,345
2017-08-15T11:25:31.020Z,420
2017-08-15T11:26:30.630Z,470
2017-08-15T11:27:30.389Z,460
2017-08-15T11:28:30.874Z,460
2017-08-15T11:29:30.943Z,475
2017-08-15T11:30:30.757Z,420
2017-08-15T11:31:30.494Z,385
2017-08-15T11:32:31.067Z,395
2017-08-15T11:33:31.013Z,460
2017-08-15T11:34:30.643Z,525
2017-08-15T11:35:31.402Z,540
2017-08-15T11:36:30.745Z,535
2017-08-15T11:37:30.646Z,505
2017-08-15T11:38:31.071Z,475
2017-08-15T11:39:30.982Z,500
2017-08-15T11:40:30.875Z,505
2017-08-15T11:41:30.590Z,500
2017-08-15T11:42:30.856Z,515
2017-08-15T11:43:31.292Z,540
2017-08-15T11:44:31.014Z,595
2017-08-15T11:45:31.049Z,625
2017-08-15T11:46:31.347Z,655
2017-08-15T11:47:31.534Z,675
2017-08-15T11:48:31.055Z,685
2017-08-15T11:49:31.092Z,675
2017-08-15T11:50:31.175Z,650
2017-08-15T11:51:31.462Z,635
2017-08-15T11:52:31.361Z,645
2017-08-15T11:53:30.802Z,675
2017-08-15T11:54:31.318Z,665
2017-08-15T11:55:31.532Z,580
2017-08-15T11:56:31.753Z,470
2017-08-15T11:57:32.109Z,375
2017-08-15T11:58:32.144Z,315
2017-08-15T11:59:31.860Z,280
2017-08-15T12:00:31.624Z,270
2017-08-15T12:01:31.956Z,265
2017-08-15T12:02:32.276Z,275
2017-08-15T12:03:31.765Z,275
2017-08-15T12:04:32.069Z,265
2017-08-15T12:05:32.415Z,260
2017-08-15T12:06:31.619Z,240
2017-08-15T12:07:32.925Z,230
2017-08-15T12:08:33.249Z,225
2017-08-15T12:09:32.954Z,220
2017-08-15T12:10:32.485Z,220
2017-08-15T12:11:31.889Z,220
2017-08-15T12:12:31.960Z,220
2017-08-15T12:13:31.993Z,220
2017-08-15T12:14:32.337Z,220
2017-08-15T12:15:32.381Z,215
2017-08-15T12:16:32.416Z,210
2017-08-15T12:17:32.165Z,210
2017-08-15T12:18:32.188Z,205
2017-08-15T12:19:32.212Z,200
2017-08-15T12:20:32.577Z,200
2017-08-15T12:21:32.615Z,200
2017-08-15T12:22:32.031Z,200
2017-08-15T12:23:33.080Z,200
2017-08-15T12:24:32.811Z,200
2017-08-15T12:25:33.165Z,200
2017-08-15T12:26:32.902Z,200
2017-08-15T12:27:33.236Z,200
2017-08-15T12:28:32.977Z,200
2017-08-15T12:29:33.069Z,200
2017-08-15T12:30:33.500Z,200
2017-08-15T12:31:33.218Z,200
2017-08-15T12:32:33.972Z,200
2017-08-15T12:33:34.455Z,200
2017-08-15T12:34:35.218Z,200
2017-08-15T12:35:34.471Z,200
2017-08-15T12:36:35.024Z,200
2017-08-15T12:37:34.551Z,200
2017-08-15T12:38:34.603Z,200
2017-08-15T12:39:34.809Z,200
2017-08-15T12:40:34.297Z,200
2017-08-15T12:41:34.988Z,195
2017-08-15T12:42:35.252Z,195
2017-08-15T12:43:35.395Z,195
2017-08-15T12:44:34.657Z,190
2017-08-15T12:45:34.837Z,190
2017-08-15T12:46:34.875Z,190
2017-08-15T12:47:35.218Z,185
2017-08-15T12:48:35.555Z,185
2017-08-15T12:49:35.389Z,185
2017-08-15T12:50:35.557Z,180
2017-08-15T12:51:35.370Z,180
2017-08-15T12:52:35.427Z,185
2017-08-15T12:53:35.462Z,180
2017-08-15T12:54:35.366Z,175
2017-08-15T12:55:35.811Z,180
2017-08-15T12:56:34.947Z,180
2017-08-15T12:57:35.677Z,180
2017-08-15T12:58:35.981Z,180
2017-08-15T12:59:35.516Z,175
2017-08-15T13:00:36.018Z,175
2017-08-15T13:01:35.494Z,170
2017-08-15T13:02:35.149Z,170
2017-08-15T13:03:35.186Z,170
2017-08-15T13:04:35.536Z,170
2017-08-15T13:05:35.585Z,170
2017-08-15T13:06:35.616Z,170
2017-08-15T13:07:34.715Z,175
2017-08-15T13:08:35.764Z,175
2017-08-15T13:09:35.800Z,175
2017-08-15T13:10:35.843Z,170
2017-08-15T13:11:35.570Z,170
2017-08-15T13:12:35.597Z,170
2017-08-15T13:13:35.970Z,170
2017-08-15T13:14:35.381Z,170
2017-08-15T13:15:36.444Z,170
2017-08-15T13:16:36.484Z,170
2017-08-15T13:17:36.511Z,170
2017-08-15T13:18:36.551Z,170
2017-08-15T13:19:36.599Z,170
2017-08-15T13:20:36.314Z,165
2017-08-15T13:21:36.735Z,165
2017-08-15T13:22:37.151Z,160
2017-08-15T13:23:37.876Z,160
2017-08-15T13:24:37.918Z,160
2017-08-15T13:25:37.954Z,155
2017-08-15T13:26:37.990Z,155
2017-08-15T13:27:38.037Z,155
2017-08-15T13:28:38.081Z,155
2017-08-15T13:29:37.812Z,155
2017-08-15T13:30:37.835Z,155
2017-08-15T13:31:38.192Z,155
2017-08-15T13:32:37.922Z,150
2017-08-15T13:33:38.675Z,155
2017-08-15T13:34:38.680Z,155
2017-08-15T13:35:38.977Z,150
2017-08-15T13:36:38.770Z,150
2017-08-15T13:37:38.221Z,155
2017-08-15T13:38:38.983Z,155
2017-08-15T13:39:39.737Z,155
2017-08-15T13:40:39.417Z,160
2017-08-15T13:41:39.178Z,160
2017-08-15T13:42:39.949Z,160
2017-08-15T13:43:40.289Z,170
2017-08-15T13:44:40.359Z,175
2017-08-15T13:45:40.072Z,180
2017-08-15T13:46:40.745Z,185
2017-08-15T13:47:40.784Z,190
2017-08-15T13:48:40.219Z,190
2017-08-15T13:49:40.590Z,190
2017-08-15T13:50:40.582Z,190
2017-08-15T13:51:39.980Z,190
2017-08-15T13:52:41.036Z,190
2017-08-15T13:53:40.755Z,190
2017-08-15T13:54:41.128Z,190
2017-08-15T13:55:41.173Z,190
2017-08-15T13:56:40.588Z,185
2017-08-15T13:57:41.647Z,190